createdAt,value
2019-03-06T00:02:21.342Z,4.80
2019-03-06T00:04:51.066Z,5.17
2019-03-06T00:07:20.811Z,5.23
2019-03-06T00:09:50.449Z,6.13
2019-03-06T00:12:20.110Z,5.73
2019-03-06T00:14:49.746Z,6.13
2019-03-06T00:17:19.544Z,6.37
2019-03-06T00:19:49.172Z,7.23
2019-03-06T00:22:18.886Z,6.90
2019-03-06T00:24:48.925Z,7.27
2019-03-06T00:27:18.551Z,7.23
2019-03-06T00:29:48.222Z,6.50
2019-03-06T00:32:17.852Z,8.17
2019-03-06T00:34:47.504Z,6.97
2019-03-06T00:37:17.663Z,6.27
2019-03-06T00:39:49.035Z,7.37
2019-03-06T00:42:18.742Z,7.67
2019-03-06T00:44:48.446Z,7.03
2019-03-06T00:47:18.077Z,7.67
2019-03-06T00:49:47.724Z,7.20
2019-03-06T00:52:17.347Z,7.67
2019-03-06T00:54:48.114Z,7.30
2019-03-06T00:57:17.780Z,8.27
2019-03-06T00:59:47.886Z,8.17
2019-03-06T01:02:17.539Z,7.60
2019-03-06T01:04:47.237Z,8.00
2019-03-06T01:07:16.922Z,7.07
2019-03-06T01:09:46.572Z,8.30
2019-03-06T01:12:16.204Z,7.60
2019-03-06T01:14:45.930Z,7.07
2019-03-06T01:17:15.561Z,7.00
2019-03-06T01:19:45.205Z,7.73
2019-03-06T01:22:14.861Z,7.27
2019-03-06T01:24:44.532Z,7.60
2019-03-06T01:27:14.183Z,7.83
2019-03-06T01:29:43.836Z,7.10
2019-03-06T01:32:13.488Z,7.60
2019-03-06T01:34:59.955Z,7.33
2019-03-06T01:37:31.329Z,6.97
2019-03-06T01:40:20.711Z,7.30
2019-03-06T01:42:54.542Z,7.07
2019-03-06T01:45:24.355Z,7.73
2019-03-06T01:47:54.007Z,7.00
2019-03-06T01:50:23.655Z,7.10
2019-03-06T01:52:53.286Z,7.17
2019-03-06T01:55:22.946Z,6.53
2019-03-06T01:57:52.573Z,7.10
2019-03-06T02:00:22.668Z,7.30
2019-03-06T02:02:52.339Z,6.43
2019-03-06T02:05:21.972Z,7.37
2019-03-06T02:07:51.617Z,7.20
2019-03-06T02:10:21.416Z,6.93
2019-03-06T02:12:51.078Z,6.73
2019-03-06T02:15:20.879Z,7.20
2019-03-06T02:17:50.532Z,6.90
2019-03-06T02:20:20.181Z,7.00
2019-03-06T02:22:49.912Z,7.37
2019-03-06T02:25:19.612Z,7.23
2019-03-06T02:27:49.253Z,7.33
2019-03-06T02:30:21.825Z,8.03
2019-03-06T02:32:51.466Z,7.47
2019-03-06T02:35:21.370Z,7.53
2019-03-06T02:37:51.010Z,7.00
2019-03-06T02:40:20.647Z,7.43
2019-03-06T02:43:02.467Z,7.77
2019-03-06T02:45:32.088Z,7.83
2019-03-06T02:48:01.736Z,8.70
2019-03-06T02:50:31.376Z,8.47
2019-03-06T02:53:02.952Z,7.93
2019-03-06T02:55:32.596Z,9.20
2019-03-06T02:58:06.873Z,8.07
2019-03-06T03:00:38.529Z,9.30
2019-03-06T03:03:25.942Z,8.50
2019-03-06T03:06:05.900Z,8.47
2019-03-06T03:08:35.553Z,9.60
2019-03-06T03:11:05.406Z,9.37
2019-03-06T03:13:35.178Z,9.87
2019-03-06T03:16:05.058Z,9.83
2019-03-06T03:18:34.952Z,11.13
2019-03-06T03:21:04.822Z,11.17
2019-03-06T03:23:34.661Z,10.77
2019-03-06T03:26:04.458Z,10.67
2019-03-06T03:28:34.121Z,11.33
2019-03-06T03:31:03.796Z,11.30
2019-03-06T03:33:33.455Z,11.50
2019-03-06T03:36:03.123Z,10.93
2019-03-06T03:38:32.759Z,11.60
2019-03-06T03:41:02.621Z,10.77
2019-03-06T03:43:47.385Z,12.63
2019-03-06T03:46:17.028Z,11.83
2019-03-06T03:48:46.696Z,12.40
2019-03-06T03:51:16.330Z,11.90
2019-03-06T03:53:46.832Z,12.90
2019-03-06T03:56:16.529Z,12.80
2019-03-06T03:58:46.158Z,13.13
2019-03-06T04:01:34.329Z,12.50
2019-03-06T04:04:04.154Z,13.40
2019-03-06T04:06:33.794Z,13.40
2019-03-06T04:09:04.490Z,12.67
2019-03-06T04:11:34.123Z,13.33
2019-03-06T04:14:03.767Z,13.10
2019-03-06T04:16:33.592Z,13.77
2019-03-06T04:19:03.238Z,12.87
2019-03-06T04:21:32.876Z,14.70
2019-03-06T04:24:02.524Z,14.47
2019-03-06T04:26:32.160Z,13.67
2019-03-06T04:29:01.896Z,14.03
2019-03-06T04:31:31.830Z,13.43
2019-03-06T04:34:01.474Z,14.23
2019-03-06T04:36:31.114Z,13.37
2019-03-06T04:39:00.789Z,13.87
2019-03-06T04:41:30.414Z,14.67
2019-03-06T04:44:00.079Z,14.40
2019-03-06T04:46:29.704Z,15.73
2019-03-06T04:48:59.351Z,14.50
2019-03-06T04:51:28.985Z,15.40
2019-03-06T04:53:58.642Z,14.10
2019-03-06T04:56:28.287Z,14.80
2019-03-06T04:58:57.949Z,13.47
2019-03-06T05:01:27.588Z,14.07
2019-03-06T05:03:57.236Z,14.73
2019-03-06T05:06:26.900Z,15.23
2019-03-06T05:08:56.522Z,14.40
2019-03-06T05:11:26.173Z,15.10
2019-03-06T05:13:55.828Z,14.33
2019-03-06T05:16:27.480Z,14.43
2019-03-06T05:18:58.190Z,14.23
2019-03-06T05:21:27.824Z,14.93
2019-03-06T05:23:57.488Z,15.13
2019-03-06T05:26:27.173Z,15.43
2019-03-06T05:28:57.053Z,14.67
2019-03-06T05:31:26.705Z,15.27
2019-03-06T05:33:56.365Z,15.53
2019-03-06T05:36:29.070Z,16.60
2019-03-06T05:39:07.043Z,14.70
2019-03-06T05:41:36.692Z,16.00
2019-03-06T05:44:06.511Z,16.00
2019-03-06T05:46:36.212Z,15.53
2019-03-06T05:49:05.952Z,16.10
2019-03-06T05:51:35.587Z,15.77
2019-03-06T05:54:05.251Z,16.07
2019-03-06T05:56:34.904Z,15.70
2019-03-06T05:59:04.542Z,17.97
2019-03-06T06:01:34.474Z,16.87
2019-03-06T06:04:04.110Z,16.77
2019-03-06T06:06:33.837Z,15.50
2019-03-06T06:09:04.508Z,16.57
2019-03-06T06:11:35.465Z,17.80
2019-03-06T06:14:05.099Z,17.00
2019-03-06T06:16:34.741Z,17.23
2019-03-06T06:19:04.387Z,16.60
2019-03-06T06:21:50.787Z,16.93
2019-03-06T06:24:20.417Z,18.40
2019-03-06T06:26:50.079Z,18.13
2019-03-06T06:29:19.776Z,18.30
2019-03-06T06:31:49.522Z,17.73
2019-03-06T06:34:19.236Z,17.63
2019-03-06T06:36:48.961Z,18.30
2019-03-06T06:39:18.603Z,18.83
2019-03-06T06:41:48.269Z,17.60
2019-03-06T06:44:17.919Z,17.17
2019-03-06T06:46:47.585Z,18.30
2019-03-06T06:49:17.222Z,18.83
2019-03-06T06:51:56.078Z,19.47
2019-03-06T06:54:45.371Z,17.87
2019-03-06T06:57:50.151Z,19.83
2019-03-06T07:00:33.348Z,20.00
2019-03-06T07:03:38.100Z,19.50
2019-03-06T07:06:15.572Z,18.50
2019-03-06T07:08:46.852Z,18.83
2019-03-06T07:11:18.157Z,19.83
2019-03-06T07:13:58.178Z,19.70
2019-03-06T07:16:32.132Z,22.13
2019-03-06T07:19:12.410Z,20.77
2019-03-06T07:21:59.775Z,18.90
2019-03-06T07:24:47.263Z,18.87
2019-03-06T07:27:33.537Z,19.23
2019-03-06T07:30:21.654Z,19.63
2019-03-06T07:32:55.870Z,17.73
2019-03-06T07:36:08.266Z,18.57
2019-03-06T07:38:37.917Z,17.03
2019-03-06T07:41:21.191Z,17.17
2019-03-06T07:44:01.654Z,17.17
2019-03-06T07:46:49.340Z,17.40
2019-03-06T07:49:23.280Z,16.93
2019-03-06T07:52:00.337Z,17.03
2019-03-06T07:54:48.123Z,16.43
2019-03-06T07:57:19.428Z,16.47
2019-03-06T07:59:49.124Z,15.67
2019-03-06T08:02:24.987Z,14.70
2019-03-06T08:04:55.463Z,15.73
2019-03-06T08:07:25.200Z,14.20
2019-03-06T08:09:54.829Z,13.43
2019-03-06T08:12:26.290Z,13.67
2019-03-06T08:15:12.621Z,13.23
2019-03-06T08:17:55.990Z,14.27
2019-03-06T08:20:30.125Z,13.67
2019-03-06T08:23:01.427Z,13.40
2019-03-06T08:25:38.879Z,13.80
2019-03-06T08:28:08.533Z,13.80
2019-03-06T08:30:39.806Z,14.43
2019-03-06T08:33:17.984Z,13.00
2019-03-06T08:35:41.544Z,15.65
2019-03-06T08:38:17.315Z,13.73
2019-03-06T08:40:46.952Z,13.83
2019-03-06T08:43:17.061Z,13.50
2019-03-06T08:45:48.680Z,12.87
2019-03-06T08:48:20.045Z,12.77
2019-03-06T08:50:51.303Z,12.57
2019-03-06T08:53:25.418Z,11.03
2019-03-06T08:55:59.363Z,11.57
2019-03-06T08:58:39.377Z,12.80
2019-03-06T09:01:35.793Z,10.37
2019-03-06T09:04:08.246Z,10.77
2019-03-06T09:06:42.543Z,10.40
2019-03-06T09:09:24.800Z,10.53
2019-03-06T09:12:12.648Z,12.60
2019-03-06T09:14:55.632Z,10.43
2019-03-06T09:17:27.370Z,11.30
2019-03-06T09:19:58.650Z,11.47
2019-03-06T09:22:29.930Z,10.63
2019-03-06T09:25:04.026Z,11.00
2019-03-06T09:27:41.577Z,11.53
2019-03-06T09:30:30.912Z,10.90
2019-03-06T09:33:11.015Z,9.33
2019-03-06T09:35:45.215Z,10.57
2019-03-06T09:38:16.562Z,10.40
2019-03-06T09:40:53.507Z,10.70
2019-03-06T09:43:27.465Z,9.90
2019-03-06T09:46:15.555Z,10.10
2019-03-06T09:48:49.955Z,9.50
2019-03-06T09:51:37.809Z,9.47
2019-03-06T09:54:24.187Z,9.27
2019-03-06T09:56:55.768Z,9.17
2019-03-06T09:59:43.361Z,9.80
2019-03-06T10:02:18.071Z,10.40
2019-03-06T10:05:01.533Z,9.17
2019-03-06T10:07:49.071Z,8.83
2019-03-06T10:10:20.622Z,8.93
2019-03-06T10:13:03.888Z,9.77
2019-03-06T10:15:46.951Z,8.97
2019-03-06T10:18:24.175Z,9.40
2019-03-06T10:20:53.838Z,9.50
2019-03-06T10:23:23.459Z,9.53
2019-03-06T10:25:53.110Z,11.10
2019-03-06T10:28:27.856Z,10.50
2019-03-06T10:31:02.197Z,10.30
2019-03-06T10:33:25.416Z,9.47
2019-03-06T10:35:55.093Z,10.40
2019-03-06T10:38:24.797Z,9.73
2019-03-06T10:40:54.535Z,10.97
2019-03-06T10:43:24.184Z,10.33
2019-03-06T10:46:03.110Z,10.93
2019-03-06T10:48:32.774Z,9.37
2019-03-06T10:51:02.421Z,9.07
2019-03-06T10:53:40.903Z,8.80
2019-03-06T10:56:03.421Z,8.87
2019-03-06T10:58:33.146Z,9.70
2019-03-06T11:01:03.215Z,9.40
2019-03-06T11:03:40.495Z,9.83
2019-03-06T11:06:11.612Z,9.10
2019-03-06T11:08:41.376Z,9.07
2019-03-06T11:11:11.194Z,10.30
2019-03-06T11:13:41.025Z,9.23
2019-03-06T11:16:11.576Z,7.80
2019-03-06T11:18:41.403Z,8.67
2019-03-06T11:21:11.590Z,10.43
2019-03-06T11:23:41.442Z,9.13
2019-03-06T11:26:11.287Z,10.10
2019-03-06T11:28:41.097Z,9.73
2019-03-06T11:31:11.793Z,8.70
2019-03-06T11:33:41.874Z,10.27
2019-03-06T11:36:11.825Z,10.33
2019-03-06T11:38:41.453Z,9.20
2019-03-06T11:41:11.168Z,9.50
2019-03-06T11:43:41.112Z,10.33
2019-03-06T11:46:11.709Z,10.40
2019-03-06T11:48:41.440Z,9.53
2019-03-06T11:51:11.286Z,10.73
2019-03-06T11:53:41.016Z,10.60
2019-03-06T11:56:14.315Z,9.57
2019-03-06T11:58:44.692Z,10.60
2019-03-06T12:01:17.929Z,10.23
2019-03-06T12:03:48.472Z,10.70
2019-03-06T12:06:18.364Z,10.73
2019-03-06T12:08:48.356Z,10.30
2019-03-06T12:11:18.072Z,10.57
2019-03-06T12:13:48.091Z,11.10
2019-03-06T12:16:19.462Z,11.13
2019-03-06T12:18:49.340Z,10.20
2019-03-06T12:21:19.308Z,10.27
2019-03-06T12:23:49.137Z,10.43
2019-03-06T12:26:18.851Z,10.07
2019-03-06T12:28:48.666Z,10.63
2019-03-06T12:31:18.378Z,9.93
2019-03-06T12:33:48.397Z,9.73
2019-03-06T12:36:19.771Z,9.47
2019-03-06T12:38:49.481Z,10.13
2019-03-06T12:41:19.304Z,10.10
2019-03-06T12:43:56.184Z,10.03
2019-03-06T12:46:25.846Z,10.13
2019-03-06T12:48:59.394Z,8.93
2019-03-06T12:51:29.531Z,9.93
2019-03-06T12:53:59.519Z,10.40
2019-03-06T12:56:29.894Z,9.87
2019-03-06T12:58:59.653Z,11.20
2019-03-06T13:01:29.360Z,9.97
2019-03-06T13:03:59.055Z,9.87
2019-03-06T13:06:28.686Z,12.13
2019-03-06T13:08:59.024Z,10.00
2019-03-06T13:11:28.689Z,10.30
2019-03-06T13:14:02.497Z,10.90
2019-03-06T13:16:32.146Z,9.67
2019-03-06T13:19:02.215Z,9.87
2019-03-06T13:21:33.951Z,9.70
2019-03-06T13:24:03.709Z,10.40
2019-03-06T13:26:33.363Z,11.30
2019-03-06T13:29:03.928Z,11.70
2019-03-06T13:31:34.014Z,10.03
2019-03-06T13:34:05.359Z,10.03
2019-03-06T13:36:35.070Z,10.27
2019-03-06T13:39:06.851Z,9.90
2019-03-06T13:41:36.628Z,9.83
2019-03-06T13:44:06.429Z,9.47
2019-03-06T13:46:36.327Z,10.00
2019-03-06T13:49:06.232Z,9.20
2019-03-06T13:51:35.949Z,8.57
2019-03-06T13:54:05.856Z,9.00
2019-03-06T13:56:35.613Z,9.67
2019-03-06T13:59:05.882Z,9.00
2019-03-06T14:01:35.752Z,8.63
2019-03-06T14:04:05.643Z,8.23
2019-03-06T14:06:35.545Z,8.97
2019-03-06T14:09:07.775Z,8.73
2019-03-06T14:11:37.684Z,8.77
2019-03-06T14:14:07.371Z,7.97
2019-03-06T14:16:37.041Z,8.13
2019-03-06T14:19:06.802Z,8.63
2019-03-06T14:21:36.583Z,8.77
2019-03-06T14:24:06.391Z,8.27
2019-03-06T14:26:36.359Z,8.60
2019-03-06T14:29:06.004Z,9.00
2019-03-06T14:31:35.730Z,9.30
2019-03-06T14:34:05.504Z,8.57
2019-03-06T14:36:35.348Z,7.37
2019-03-06T14:39:08.092Z,6.30
2019-03-06T14:41:37.839Z,7.17
2019-03-06T14:44:07.899Z,8.30
2019-03-06T14:46:37.611Z,7.67
2019-03-06T14:49:07.240Z,7.27
2019-03-06T14:51:37.091Z,8.83
2019-03-06T14:54:07.881Z,7.80
2019-03-06T14:56:37.738Z,7.27
2019-03-06T14:59:07.430Z,8.00
2019-03-06T15:01:37.082Z,8.13
2019-03-06T15:04:06.821Z,6.90
2019-03-06T15:06:36.698Z,7.20
2019-03-06T15:09:10.823Z,7.70
2019-03-06T15:11:40.702Z,8.13
2019-03-06T15:14:10.404Z,8.00
2019-03-06T15:16:40.123Z,7.37
2019-03-06T15:19:09.773Z,7.40
2019-03-06T15:21:39.650Z,7.30
2019-03-06T15:24:09.297Z,7.50
2019-03-06T15:26:39.067Z,7.83
2019-03-06T15:29:08.742Z,7.07
2019-03-06T15:31:38.442Z,7.30
2019-03-06T15:34:08.103Z,7.47
2019-03-06T15:36:40.985Z,7.27
2019-03-06T15:39:30.598Z,7.43
2019-03-06T15:42:02.303Z,7.27
2019-03-06T15:44:32.026Z,8.20
2019-03-06T15:47:01.699Z,7.70
2019-03-06T15:49:31.355Z,7.27
2019-03-06T15:52:00.979Z,6.97
2019-03-06T15:54:30.619Z,9.43
2019-03-06T15:57:00.250Z,7.63
2019-03-06T15:59:29.967Z,7.17
2019-03-06T16:01:59.585Z,7.37
2019-03-06T16:04:29.273Z,6.90
2019-03-06T16:06:58.983Z,14.53
2019-03-06T16:09:28.800Z,7.07
2019-03-06T16:11:58.512Z,7.63
2019-03-06T16:14:28.330Z,7.47
2019-03-06T16:16:58.134Z,7.60
2019-03-06T16:19:36.819Z,7.53
2019-03-06T16:22:06.626Z,7.83
2019-03-06T16:24:37.656Z,7.77
2019-03-06T16:27:07.483Z,6.43
2019-03-06T16:29:47.429Z,8.07
2019-03-06T16:32:18.190Z,7.20
2019-03-06T16:34:48.123Z,7.80
2019-03-06T16:37:17.841Z,7.53
2019-03-06T16:39:47.540Z,8.20
2019-03-06T16:42:17.228Z,7.83
2019-03-06T16:44:46.900Z,8.13
2019-03-06T16:47:16.532Z,6.00
2019-03-06T16:49:46.235Z,7.50
2019-03-06T16:52:15.875Z,6.77
2019-03-06T16:54:45.512Z,7.20
2019-03-06T16:57:15.284Z,7.20
2019-03-06T16:59:44.990Z,6.50
2019-03-06T17:02:14.912Z,6.83
2019-03-06T17:04:44.678Z,7.00
2019-03-06T17:07:14.463Z,6.57
2019-03-06T17:09:44.283Z,6.10
2019-03-06T17:12:16.476Z,6.17
2019-03-06T17:14:47.760Z,6.00
2019-03-06T17:17:20.255Z,5.83
2019-03-06T17:19:49.904Z,6.20
2019-03-06T17:22:19.558Z,5.97
2019-03-06T17:24:49.219Z,6.70
2019-03-06T17:27:18.919Z,6.10
2019-03-06T17:29:48.781Z,6.67
2019-03-06T17:32:18.407Z,6.47
2019-03-06T17:34:48.128Z,7.20
2019-03-06T17:37:17.880Z,5.93
2019-03-06T17:39:47.599Z,5.60
2019-03-06T17:42:17.809Z,5.83
2019-03-06T17:44:47.460Z,5.57
2019-03-06T17:47:17.097Z,5.50
2019-03-06T17:49:46.755Z,5.97
2019-03-06T17:52:16.397Z,6.10
2019-03-06T17:54:46.304Z,5.77
2019-03-06T17:57:15.943Z,5.90
2019-03-06T17:59:45.560Z,7.70
2019-03-06T18:02:15.353Z,9.33
2019-03-06T18:04:45.009Z,8.80
2019-03-06T18:07:14.755Z,6.40
2019-03-06T18:09:44.651Z,5.93
2019-03-06T18:12:16.083Z,5.57
2019-03-06T18:14:50.819Z,6.30
2019-03-06T18:17:20.528Z,6.27
2019-03-06T18:19:50.316Z,5.80
2019-03-06T18:22:20.872Z,6.20
2019-03-06T18:24:50.924Z,6.47
2019-03-06T18:27:26.402Z,6.83
2019-03-06T18:29:52.031Z,6.63
2019-03-06T18:32:23.598Z,6.30
2019-03-06T18:34:53.076Z,5.80
2019-03-06T18:37:22.958Z,6.23
2019-03-06T18:39:52.675Z,6.60
2019-03-06T18:42:22.315Z,6.70
2019-03-06T18:44:51.942Z,6.47
2019-03-06T18:47:21.601Z,6.87
2019-03-06T18:49:51.217Z,7.40
2019-03-06T18:52:20.863Z,7.10
2019-03-06T18:54:50.488Z,6.70
2019-03-06T18:57:20.205Z,6.40
2019-03-06T18:59:49.833Z,6.93
2019-03-06T19:02:19.514Z,6.77
2019-03-06T19:04:49.204Z,6.13
2019-03-06T19:07:18.847Z,6.50
2019-03-06T19:09:48.475Z,6.90
2019-03-06T19:12:18.129Z,6.33
2019-03-06T19:14:47.758Z,6.10
2019-03-06T19:17:17.495Z,6.97
2019-03-06T19:19:47.413Z,7.73
2019-03-06T19:22:17.067Z,7.90
2019-03-06T19:24:46.788Z,7.00
2019-03-06T19:27:16.421Z,7.43
2019-03-06T19:29:46.219Z,7.33
2019-03-06T19:32:15.923Z,6.80
2019-03-06T19:34:45.806Z,9.70
2019-03-06T19:37:15.513Z,7.87
2019-03-06T19:39:45.177Z,7.40
2019-03-06T19:42:14.800Z,7.07
2019-03-06T19:44:45.453Z,6.63
2019-03-06T19:47:15.142Z,6.77
2019-03-06T19:49:44.786Z,7.90
2019-03-06T19:52:14.428Z,6.93
2019-03-06T19:54:44.071Z,8.30
2019-03-06T19:57:13.769Z,7.53
2019-03-06T19:59:43.486Z,6.40
2019-03-06T20:02:13.178Z,8.60
2019-03-06T20:04:42.831Z,7.73
2019-03-06T20:07:12.473Z,7.87
2019-03-06T20:09:42.136Z,7.80
2019-03-06T20:12:11.764Z,7.40
2019-03-06T20:14:41.436Z,8.73
2019-03-06T20:17:11.268Z,7.20
2019-03-06T20:19:41.485Z,8.23
2019-03-06T20:22:11.266Z,8.03
2019-03-06T20:24:41.335Z,8.67
2019-03-06T20:27:11.333Z,7.37
2019-03-06T20:29:41.584Z,7.37
2019-03-06T20:32:11.641Z,8.23
2019-03-06T20:34:41.284Z,8.03
2019-03-06T20:37:10.924Z,7.70
2019-03-06T20:39:40.660Z,8.13
2019-03-06T20:42:10.294Z,8.13
2019-03-06T20:44:39.936Z,11.90
2019-03-06T20:47:09.852Z,7.57
2019-03-06T20:49:39.496Z,7.27
2019-03-06T20:52:09.139Z,9.60
2019-03-06T20:54:40.797Z,7.70
2019-03-06T20:57:10.093Z,8.33
2019-03-06T20:59:42.561Z,9.73
2019-03-06T21:02:12.009Z,7.83
2019-03-06T21:04:41.734Z,9.63
2019-03-06T21:07:11.450Z,8.27
2019-03-06T21:09:41.129Z,9.97
2019-03-06T21:12:10.879Z,8.70
2019-03-06T21:14:41.881Z,7.77
2019-03-06T21:17:11.860Z,9.07
2019-03-06T21:19:43.108Z,9.10
2019-03-06T21:22:12.908Z,8.40
2019-03-06T21:24:42.546Z,8.10
2019-03-06T21:27:12.169Z,8.57
2019-03-06T21:29:42.382Z,8.90
2019-03-06T21:32:12.115Z,8.13
2019-03-06T21:34:41.772Z,7.97
2019-03-06T21:37:11.908Z,8.30
2019-03-06T21:39:41.623Z,8.33
2019-03-06T21:42:11.292Z,7.90
2019-03-06T21:44:40.912Z,8.07
2019-03-06T21:47:10.548Z,8.60
2019-03-06T21:49:41.038Z,8.33
2019-03-06T21:52:10.676Z,7.90
2019-03-06T21:54:40.306Z,8.83
2019-03-06T21:57:09.941Z,9.00
2019-03-06T21:59:39.563Z,8.13
2019-03-06T22:02:09.579Z,8.40
2019-03-06T22:04:41.075Z,8.93
2019-03-06T22:07:10.713Z,8.20
2019-03-06T22:09:40.338Z,9.00
2019-03-06T22:12:11.035Z,8.63
2019-03-06T22:14:40.658Z,8.90
2019-03-06T22:17:10.321Z,9.40
2019-03-06T22:19:40.024Z,8.23
2019-03-06T22:22:09.677Z,8.63
2019-03-06T22:24:39.302Z,8.97
2019-03-06T22:27:08.930Z,9.07
2019-03-06T22:29:38.550Z,8.03
2019-03-06T22:32:08.704Z,8.70
2019-03-06T22:34:38.618Z,8.90
2019-03-06T22:37:08.253Z,8.13
2019-03-06T22:39:37.878Z,8.20
2019-03-06T22:42:07.656Z,9.17
2019-03-06T22:44:37.285Z,9.03
2019-03-06T22:47:07.103Z,8.67
2019-03-06T22:49:36.752Z,8.43
2019-03-06T22:52:06.400Z,8.53
2019-03-06T22:54:36.101Z,9.50
2019-03-06T22:57:05.789Z,9.03
2019-03-06T22:59:35.400Z,8.93
2019-03-06T23:02:05.110Z,7.70
2019-03-06T23:04:34.775Z,8.67
2019-03-06T23:07:04.425Z,8.13
2019-03-06T23:09:34.061Z,8.17
2019-03-06T23:12:03.705Z,7.67
2019-03-06T23:14:35.357Z,8.43
2019-03-06T23:17:05.070Z,7.83
2019-03-06T23:19:34.715Z,7.80
2019-03-06T23:22:04.414Z,7.97
2019-03-06T23:24:34.131Z,8.07
2019-03-06T23:27:04.007Z,7.57
2019-03-06T23:29:33.652Z,7.60
2019-03-06T23:32:03.287Z,7.37
2019-03-06T23:34:32.930Z,7.40
2019-03-06T23:37:02.639Z,7.07
2019-03-06T23:39:32.314Z,7.30
2019-03-06T23:42:02.140Z,6.70
2019-03-06T23:44:31.778Z,7.00
2019-03-06T23:47:01.486Z,6.97
2019-03-06T23:49:31.125Z,6.50
2019-03-06T23:52:00.755Z,7.37
2019-03-06T23:54:30.664Z,7.10
2019-03-06T23:57:00.496Z,7.20
2019-03-06T23:59:30.124Z,7.70
